createdAt,value
2019-04-20T00:00:04.384Z,8.19
2019-04-20T00:01:01.573Z,8.19
2019-04-20T00:02:07.231Z,8.12
2019-04-20T00:03:01.353Z,8.11
2019-04-20T00:03:59.412Z,8.10
2019-04-20T00:04:59.404Z,8.12
2019-04-20T00:05:59.418Z,8.08
2019-04-20T00:06:59.378Z,8.08
2019-04-20T00:08:03.218Z,8.01
2019-04-20T00:09:08.817Z,8.00
2019-04-20T00:10:06.280Z,8.04
2019-04-20T00:11:07.994Z,8.01
2019-04-20T00:12:08.920Z,8.02
2019-04-20T00:13:12.516Z,7.95
2019-04-20T00:14:08.540Z,7.90
2019-04-20T00:15:00.629Z,8.04
2019-04-20T00:15:59.944Z,7.87
2019-04-20T00:16:59.269Z,7.89
2019-04-20T00:18:02.194Z,7.80
2019-04-20T00:19:03.228Z,7.82
2019-04-20T00:20:04.015Z,7.77
2019-04-20T00:21:05.525Z,7.85
2019-04-20T00:22:04.586Z,7.83
2019-04-20T00:23:00.200Z,7.82
2019-04-20T00:24:01.043Z,7.64
2019-04-20T00:25:04.249Z,7.74
2019-04-20T00:26:06.774Z,7.77
2019-04-20T00:27:22.092Z,7.69
2019-04-20T00:28:22.724Z,7.57
2019-04-20T00:29:20.189Z,7.63
2019-04-20T00:30:26.441Z,7.68
2019-04-20T00:31:20.698Z,7.61
2019-04-20T00:32:13.438Z,7.52
2019-04-20T00:33:09.604Z,7.50
2019-04-20T00:34:06.681Z,7.46
2019-04-20T00:35:00.064Z,7.53
2019-04-20T00:35:59.054Z,7.50
2019-04-20T00:37:00.291Z,7.49
2019-04-20T00:37:59.171Z,7.50
2019-04-20T00:39:02.744Z,7.48
2019-04-20T00:40:00.007Z,7.39
2019-04-20T00:41:03.698Z,7.40
2019-04-20T00:42:05.605Z,7.42
2019-04-20T00:43:01.482Z,7.40
2019-04-20T00:44:07.153Z,7.35
2019-04-20T00:45:07.941Z,7.28
2019-04-20T00:46:09.129Z,7.34
2019-04-20T00:47:13.313Z,7.24
2019-04-20T00:48:05.703Z,7.35
2019-04-20T00:49:15.036Z,7.20
2019-04-20T00:50:13.678Z,7.21
2019-04-20T00:51:22.320Z,7.10
2019-04-20T00:53:11.402Z,7.13
2019-04-20T00:54:00.895Z,7.05
2019-04-20T00:55:00.016Z,6.98
2019-04-20T00:55:59.165Z,7.03
2019-04-20T00:57:09.289Z,6.99
2019-04-20T00:58:11.750Z,6.92
2019-04-20T00:59:13.123Z,7.03
2019-04-20T01:00:17.698Z,7.03
2019-04-20T01:01:21.886Z,6.95
2019-04-20T01:02:18.029Z,6.97
2019-04-20T01:03:14.306Z,6.92
2019-04-20T01:04:20.191Z,6.94
2019-04-20T01:05:17.968Z,6.91
2019-04-20T01:06:19.291Z,6.87
2019-04-20T01:07:13.745Z,6.91
2019-04-20T01:08:02.138Z,6.88
2019-04-20T01:08:59.211Z,6.77
2019-04-20T01:09:58.672Z,6.80
2019-04-20T01:11:02.718Z,6.85
2019-04-20T01:11:58.653Z,6.77
2019-04-20T01:13:05.066Z,6.84
2019-04-20T01:14:04.376Z,6.81
2019-04-20T01:15:04.282Z,6.79
2019-04-20T01:16:07.643Z,6.84
2019-04-20T01:17:10.990Z,6.84
2019-04-20T01:17:59.581Z,6.79
2019-04-20T01:18:58.598Z,6.92
2019-04-20T01:19:58.561Z,6.80
2019-04-20T01:21:06.814Z,6.80
2019-04-20T01:22:06.737Z,6.76
2019-04-20T01:23:06.493Z,6.77
2019-04-20T01:24:02.932Z,6.87
2019-04-20T01:25:06.882Z,6.81
2019-04-20T01:26:05.539Z,6.74
2019-04-20T01:27:02.486Z,6.67
2019-04-20T01:28:16.322Z,6.66
2019-04-20T01:29:16.149Z,6.61
2019-04-20T01:30:10.164Z,6.59
2019-04-20T01:31:12.607Z,6.66
2019-04-20T01:32:14.142Z,6.61
2019-04-20T01:33:12.480Z,6.66
2019-04-20T01:34:08.313Z,6.64
2019-04-20T01:35:09.999Z,6.58
2019-04-20T01:36:19.527Z,6.64
2019-04-20T01:37:14.483Z,6.58
2019-04-20T01:38:16.872Z,6.61
2019-04-20T01:39:10.315Z,6.59
2019-04-20T01:40:03.000Z,6.48
2019-04-20T01:40:59.347Z,6.49
2019-04-20T01:41:58.314Z,6.55
2019-04-20T01:42:59.513Z,6.40
2019-04-20T01:43:58.580Z,6.44
2019-04-20T01:44:58.972Z,6.46
2019-04-20T01:46:07.549Z,6.44
2019-04-20T01:47:03.196Z,6.46
2019-04-20T01:48:01.824Z,6.48
2019-04-20T01:48:59.914Z,6.44
2019-04-20T01:50:03.843Z,6.41
2019-04-20T01:51:07.369Z,6.44
2019-04-20T01:52:08.545Z,6.44
2019-04-20T01:53:11.492Z,6.48
2019-04-20T01:54:16.113Z,6.27
2019-04-20T01:55:16.773Z,6.28
2019-04-20T01:56:15.698Z,6.33
2019-04-20T01:57:08.245Z,6.33
2019-04-20T01:58:17.491Z,6.30
2019-04-20T01:59:16.379Z,6.14
2019-04-20T02:00:08.506Z,6.31
2019-04-20T02:01:00.731Z,6.28
2019-04-20T02:02:04.440Z,6.12
2019-04-20T02:03:02.933Z,6.17
2019-04-20T02:04:01.894Z,6.19
2019-04-20T02:05:04.460Z,6.15
2019-04-20T02:06:06.182Z,6.14
2019-04-20T02:07:02.937Z,6.18
2019-04-20T02:07:59.085Z,6.19
2019-04-20T02:09:03.354Z,6.15
2019-04-20T02:10:03.663Z,6.18
2019-04-20T02:11:02.176Z,6.14
2019-04-20T02:12:05.031Z,6.09
2019-04-20T02:13:02.586Z,6.09
2019-04-20T02:14:02.396Z,6.14
2019-04-20T02:15:02.756Z,6.00
2019-04-20T02:16:09.538Z,6.09
2019-04-20T02:17:09.534Z,6.14
2019-04-20T02:18:10.755Z,6.01
2019-04-20T02:19:13.781Z,6.00
2019-04-20T02:20:17.072Z,5.97
2019-04-20T02:21:18.375Z,5.96
2019-04-20T02:22:09.912Z,6.03
2019-04-20T02:23:10.739Z,5.93
2019-04-20T02:24:02.708Z,5.96
2019-04-20T02:24:59.523Z,6.01
2019-04-20T02:25:58.814Z,5.93
2019-04-20T02:26:57.969Z,5.97
2019-04-20T02:28:14.614Z,6.00
2019-04-20T02:29:23.638Z,5.96
2019-04-20T02:30:34.375Z,5.99
2019-04-20T02:31:45.265Z,5.94
2019-04-20T02:32:26.556Z,5.96
2019-04-20T02:34:59.849Z,5.93
2019-04-20T02:35:40.445Z,5.83
2019-04-20T02:36:40.300Z,5.89
2019-04-20T02:37:38.989Z,5.82
2019-04-20T02:38:38.878Z,5.93
2019-04-20T02:41:35.114Z,5.85
2019-04-20T02:42:35.308Z,5.85
2019-04-20T02:43:41.969Z,5.83
2019-04-20T02:44:38.013Z,5.89
2019-04-20T02:45:36.539Z,5.81
2019-04-20T02:46:33.653Z,5.72
2019-04-20T02:48:37.365Z,5.76
2019-04-20T02:50:36.178Z,5.71
2019-04-20T02:51:38.992Z,5.71
2019-04-20T02:53:41.153Z,5.67
2019-04-20T02:54:25.980Z,5.65
2019-04-20T02:56:41.828Z,5.75
2019-04-20T02:57:35.958Z,5.71
2019-04-20T02:58:34.194Z,5.67
2019-04-20T03:00:25.115Z,5.57
2019-04-20T03:02:17.003Z,5.63
2019-04-20T03:03:10.139Z,5.63
2019-04-20T03:04:04.338Z,5.54
2019-04-20T03:05:13.386Z,5.54
2019-04-20T03:06:13.660Z,5.54
2019-04-20T03:07:15.216Z,5.64
2019-04-20T03:08:20.166Z,5.53
2019-04-20T03:09:19.887Z,5.57
2019-04-20T03:10:17.304Z,5.56
2019-04-20T03:11:24.816Z,5.64
2019-04-20T03:12:23.846Z,5.60
2019-04-20T03:13:18.599Z,5.56
2019-04-20T03:14:20.048Z,5.56
2019-04-20T03:15:18.556Z,5.46
2019-04-20T03:16:16.300Z,5.49
2019-04-20T03:17:25.749Z,5.39
2019-04-20T03:18:19.254Z,5.45
2019-04-20T03:19:14.221Z,5.45
2019-04-20T03:20:19.998Z,5.48
2019-04-20T03:21:27.361Z,5.42
2019-04-20T03:22:23.630Z,5.48
2019-04-20T03:23:29.731Z,5.43
2019-04-20T03:24:27.070Z,5.46
2019-04-20T03:25:20.502Z,5.43
2019-04-20T03:26:17.630Z,5.43
2019-04-20T03:27:16.092Z,5.43
2019-04-20T03:28:19.478Z,5.36
2019-04-20T03:29:13.971Z,5.43
2019-04-20T03:31:00.955Z,5.31
2019-04-20T03:31:45.000Z,5.31
2019-04-20T03:32:57.921Z,5.31
2019-04-20T03:33:30.992Z,5.27
2019-04-20T03:34:48.735Z,5.30
2019-04-20T03:35:22.625Z,5.22
2019-04-20T03:36:25.544Z,5.21
2019-04-20T03:37:28.088Z,5.21
2019-04-20T03:38:14.264Z,5.20
2019-04-20T03:39:19.101Z,5.21
2019-04-20T03:40:12.807Z,5.15
2019-04-20T03:41:09.534Z,5.20
2019-04-20T03:41:59.291Z,5.18
2019-04-20T03:42:57.047Z,5.21
2019-04-20T03:44:04.089Z,5.20
2019-04-20T03:45:04.090Z,5.18
2019-04-20T03:46:04.734Z,5.12
2019-04-20T03:47:02.790Z,5.17
2019-04-20T03:48:11.566Z,5.10
2019-04-20T03:49:15.497Z,5.09
2019-04-20T03:50:18.780Z,5.06
2019-04-20T03:51:26.913Z,5.03
2019-04-20T03:52:16.385Z,4.97
2019-04-20T03:53:19.882Z,4.97
2019-04-20T03:54:14.761Z,5.02
2019-04-20T03:55:17.480Z,4.96
2019-04-20T03:56:22.598Z,4.96
2019-04-20T03:57:20.961Z,5.04
2019-04-20T03:58:18.629Z,4.97
2019-04-20T03:59:11.596Z,4.92
2019-04-20T04:00:16.280Z,5.04
2019-04-20T04:01:19.762Z,5.02
2019-04-20T04:03:45.893Z,4.99
2019-04-20T04:04:21.430Z,4.99
2019-04-20T04:05:16.488Z,5.00
2019-04-20T04:06:09.607Z,4.96
2019-04-20T04:07:01.339Z,4.99
2019-04-20T04:08:06.174Z,5.00
2019-04-20T04:09:12.231Z,4.89
2019-04-20T04:10:14.408Z,4.91
2019-04-20T04:11:15.980Z,4.99
2019-04-20T04:12:09.112Z,4.99
2019-04-20T04:12:58.804Z,5.00
2019-04-20T04:13:56.719Z,5.02
2019-04-20T04:14:57.828Z,4.99
2019-04-20T04:16:02.815Z,4.97
2019-04-20T04:17:00.929Z,4.92
2019-04-20T04:18:04.396Z,4.94
2019-04-20T04:19:04.550Z,4.88
2019-04-20T04:20:05.039Z,4.97
2019-04-20T04:21:03.641Z,4.94
2019-04-20T04:22:11.544Z,4.96
2019-04-20T04:23:16.492Z,5.00
2019-04-20T04:24:09.547Z,4.85
2019-04-20T04:25:14.603Z,4.94
2019-04-20T04:26:20.392Z,4.97
2019-04-20T04:27:09.431Z,4.94
2019-04-20T04:28:15.233Z,4.96
2019-04-20T04:29:21.318Z,5.04
2019-04-20T04:30:14.831Z,4.92
2019-04-20T04:31:16.471Z,4.99
2019-04-20T04:32:23.581Z,4.94
2019-04-20T04:33:44.627Z,4.99
2019-04-20T04:34:14.600Z,4.96
2019-04-20T04:35:09.224Z,4.94
2019-04-20T04:36:15.392Z,5.00
2019-04-20T04:37:17.950Z,5.04
2019-04-20T04:38:24.093Z,4.99
2019-04-20T04:39:22.892Z,4.96
2019-04-20T04:40:27.851Z,5.03
2019-04-20T04:41:39.941Z,4.96
2019-04-20T04:42:34.192Z,4.96
2019-04-20T04:43:15.991Z,5.00
2019-04-20T04:44:11.960Z,5.03
2019-04-20T04:45:04.220Z,4.96
2019-04-20T04:45:57.485Z,4.99
2019-04-20T04:47:00.263Z,5.04
2019-04-20T04:47:57.763Z,4.94
2019-04-20T04:49:07.482Z,4.96
2019-04-20T04:50:05.614Z,5.02
2019-04-20T04:51:03.166Z,5.00
2019-04-20T04:52:03.893Z,5.06
2019-04-20T04:53:04.548Z,4.86
2019-04-20T04:54:05.814Z,4.89
2019-04-20T04:55:11.268Z,5.09
2019-04-20T04:56:04.837Z,4.96
2019-04-20T04:56:57.119Z,5.02
2019-04-20T04:57:56.135Z,5.03
2019-04-20T04:58:56.239Z,4.99
2019-04-20T04:59:57.297Z,4.92
2019-04-20T05:01:01.353Z,5.10
2019-04-20T05:01:58.393Z,5.03
2019-04-20T05:03:00.912Z,5.04
2019-04-20T05:05:17.761Z,5.03
2019-04-20T05:06:14.773Z,5.06
2019-04-20T05:07:12.871Z,5.12
2019-04-20T05:08:09.104Z,5.15
2019-04-20T05:09:01.857Z,5.13
2019-04-20T05:09:57.049Z,5.12
2019-04-20T05:10:56.267Z,5.18
2019-04-20T05:12:02.757Z,5.20
2019-04-20T05:12:56.944Z,5.21
2019-04-20T05:14:02.065Z,5.20
2019-04-20T05:15:06.062Z,5.24
2019-04-20T05:16:08.986Z,5.22
2019-04-20T05:17:11.648Z,5.17
2019-04-20T05:18:19.145Z,5.28
2019-04-20T05:19:19.307Z,5.27
2019-04-20T05:20:15.099Z,5.25
2019-04-20T05:21:15.276Z,5.24
2019-04-20T05:22:13.751Z,5.27
2019-04-20T05:23:13.029Z,5.35
2019-04-20T05:24:13.268Z,5.33
2019-04-20T05:26:19.666Z,5.33
2019-04-20T05:27:20.903Z,5.46
2019-04-20T05:28:14.449Z,5.43
2019-04-20T05:29:06.747Z,5.56
2019-04-20T05:29:57.084Z,5.64
2019-04-20T05:30:59.984Z,5.61
2019-04-20T05:32:03.497Z,5.64
2019-04-20T05:33:03.352Z,5.72
2019-04-20T05:34:19.974Z,5.74
2019-04-20T05:35:24.099Z,5.83
2019-04-20T05:36:18.952Z,5.91
2019-04-20T05:37:29.658Z,5.93
2019-04-20T05:38:28.353Z,5.94
2019-04-20T05:39:21.483Z,5.89
2019-04-20T05:40:20.494Z,5.97
2019-04-20T05:41:11.703Z,6.06
2019-04-20T05:42:22.125Z,6.08
2019-04-20T05:43:17.934Z,6.18
2019-04-20T05:44:13.056Z,6.19
2019-04-20T05:45:11.730Z,6.30
2019-04-20T05:46:18.481Z,6.33
2019-04-20T05:47:16.978Z,6.41
2019-04-20T05:48:11.916Z,6.40
2019-04-20T05:49:23.357Z,6.48
2019-04-20T05:50:08.550Z,6.54
2019-04-20T05:51:21.601Z,6.54
2019-04-20T05:52:31.581Z,6.58
2019-04-20T05:53:22.186Z,6.84
2019-04-20T05:54:20.310Z,7.12
2019-04-20T05:55:19.100Z,7.46
2019-04-20T05:56:16.993Z,7.67
2019-04-20T05:57:21.060Z,7.86
2019-04-20T05:58:16.499Z,8.01
2019-04-20T05:59:15.021Z,8.12
2019-04-20T06:00:19.202Z,8.15
2019-04-20T06:01:22.769Z,8.33
2019-04-20T06:02:15.941Z,8.28
2019-04-20T06:03:15.235Z,8.30
2019-04-20T06:04:17.287Z,8.47
2019-04-20T06:05:19.587Z,8.50
2019-04-20T06:06:20.641Z,8.58
2019-04-20T06:07:21.469Z,8.63
2019-04-20T06:08:28.830Z,8.80
2019-04-20T06:09:28.026Z,8.84
2019-04-20T06:10:20.805Z,8.84
2019-04-20T06:11:24.076Z,8.94
2019-04-20T06:13:14.989Z,9.11
2019-04-20T06:14:07.058Z,9.20
2019-04-20T06:15:11.851Z,9.38
2019-04-20T06:16:14.401Z,9.48
2019-04-20T06:17:21.003Z,9.50
2019-04-20T06:18:12.337Z,9.48
2019-04-20T06:19:26.059Z,9.50
2019-04-20T06:20:25.357Z,9.53
2019-04-20T06:21:27.752Z,9.60
2019-04-20T06:22:21.740Z,9.74
2019-04-20T06:23:19.659Z,9.74
2019-04-20T06:24:19.278Z,9.69
2019-04-20T06:25:40.834Z,9.75
2019-04-20T06:26:28.221Z,9.68
2019-04-20T06:27:14.581Z,9.71
2019-04-20T06:28:12.722Z,9.75
2019-04-20T06:29:15.686Z,9.81
2019-04-20T06:30:13.776Z,9.81
2019-04-20T06:32:20.833Z,9.79
2019-04-20T06:33:28.547Z,9.75
2019-04-20T06:34:39.925Z,9.78
2019-04-20T06:35:30.578Z,9.74
2019-04-20T06:36:26.162Z,9.75
2019-04-20T06:37:16.320Z,9.83
2019-04-20T06:38:40.300Z,9.83
2019-04-20T06:39:20.289Z,9.90
2019-04-20T06:40:37.991Z,9.89
2019-04-20T06:41:21.620Z,9.89
2019-04-20T06:42:18.106Z,9.94
2019-04-20T06:43:13.001Z,9.91
2019-04-20T06:44:26.687Z,9.96
2019-04-20T06:45:19.806Z,9.97
2019-04-20T06:46:15.261Z,9.97
2019-04-20T06:47:22.775Z,10.08
2019-04-20T06:48:22.121Z,10.05
2019-04-20T06:49:24.511Z,9.99
2019-04-20T06:50:14.957Z,9.99
2019-04-20T06:51:20.655Z,10.04
2019-04-20T06:52:23.119Z,10.23
2019-04-20T06:53:28.559Z,10.25
2019-04-20T06:54:07.784Z,10.27
2019-04-20T06:55:16.837Z,10.30
2019-04-20T06:56:21.676Z,10.36
2019-04-20T06:57:21.100Z,10.45
2019-04-20T06:58:36.410Z,10.45
2019-04-20T06:59:21.425Z,10.48
2019-04-20T07:00:15.728Z,10.63
2019-04-20T07:01:17.130Z,10.78
2019-04-20T07:02:24.589Z,10.84
2019-04-20T07:03:30.984Z,10.96
2019-04-20T07:04:36.448Z,10.97
2019-04-20T07:05:20.792Z,11.14
2019-04-20T07:06:42.158Z,11.10
2019-04-20T07:07:18.469Z,11.21
2019-04-20T07:08:33.079Z,11.37
2019-04-20T07:09:21.698Z,11.46
2019-04-20T07:10:22.066Z,11.62
2019-04-20T07:11:18.824Z,11.72
2019-04-20T07:12:12.584Z,11.82
2019-04-20T07:13:11.819Z,11.82
2019-04-20T07:14:02.821Z,11.88
2019-04-20T07:15:16.294Z,12.05
2019-04-20T07:16:18.563Z,12.09
2019-04-20T07:17:28.414Z,12.20
2019-04-20T07:18:18.643Z,12.45
2019-04-20T07:19:19.013Z,12.72
2019-04-20T07:20:10.306Z,12.89
2019-04-20T07:21:23.482Z,13.15
2019-04-20T07:22:32.137Z,13.32
2019-04-20T07:23:23.825Z,13.45
2019-04-20T07:24:18.070Z,13.52
2019-04-20T07:25:19.018Z,13.62
2019-04-20T07:26:23.763Z,13.79
2019-04-20T07:27:14.932Z,13.84
2019-04-20T07:28:19.585Z,13.95
2019-04-20T07:29:24.033Z,13.99
2019-04-20T07:30:16.448Z,14.04
2019-04-20T07:31:13.162Z,14.25
2019-04-20T07:32:09.930Z,14.32
2019-04-20T07:33:16.083Z,14.40
2019-04-20T07:34:15.688Z,14.51
2019-04-20T07:35:15.079Z,14.50
2019-04-20T07:36:20.168Z,14.45
2019-04-20T07:37:43.201Z,14.61
2019-04-20T07:38:34.322Z,14.78
2019-04-20T07:39:22.958Z,14.98
2019-04-20T07:40:17.622Z,14.91
2019-04-20T07:41:23.644Z,14.89
2019-04-20T07:42:21.191Z,14.89
2019-04-20T07:43:16.393Z,14.84
2019-04-20T07:44:19.936Z,14.77
2019-04-20T07:45:24.407Z,14.52
2019-04-20T07:46:24.966Z,14.33
2019-04-20T07:47:24.177Z,14.61
2019-04-20T07:48:15.482Z,14.94
2019-04-20T07:49:22.435Z,15.14
2019-04-20T07:50:09.324Z,15.31
2019-04-20T07:51:05.857Z,15.49
2019-04-20T07:51:55.597Z,15.71
2019-04-20T07:53:13.489Z,15.68
2019-04-20T07:54:24.600Z,15.74
2019-04-20T07:56:20.762Z,16.01
2019-04-20T07:57:15.479Z,16.07
2019-04-20T07:58:08.283Z,16.31
2019-04-20T07:59:03.665Z,16.61
2019-04-20T08:00:16.328Z,16.79
2019-04-20T08:01:23.880Z,16.83
2019-04-20T08:02:25.006Z,16.89
2019-04-20T08:03:23.707Z,17.08
2019-04-20T08:04:13.437Z,17.22
2019-04-20T08:05:04.411Z,17.38
2019-04-20T08:06:03.705Z,17.23
2019-04-20T08:06:59.120Z,17.22
2019-04-20T08:08:16.821Z,17.25
2019-04-20T08:09:07.371Z,17.48
2019-04-20T08:10:00.589Z,17.40
2019-04-20T08:11:13.863Z,17.37
2019-04-20T08:12:22.127Z,17.40
2019-04-20T08:14:22.468Z,17.55
2019-04-20T08:15:22.059Z,17.75
2019-04-20T08:16:32.967Z,17.89
2019-04-20T08:17:28.957Z,17.92
2019-04-20T08:18:22.852Z,17.78
2019-04-20T08:19:10.140Z,17.75
2019-04-20T08:20:18.883Z,17.78
2019-04-20T08:21:20.896Z,17.82
2019-04-20T08:22:21.649Z,17.84
2019-04-20T08:23:17.517Z,17.68
2019-04-20T08:24:13.456Z,17.93
2019-04-20T08:25:08.602Z,18.00
2019-04-20T08:26:06.707Z,18.17
2019-04-20T08:26:59.008Z,18.27
2019-04-20T08:27:55.029Z,18.23
2019-04-20T08:29:00.182Z,18.35
2019-04-20T08:30:09.093Z,18.41
2019-04-20T08:31:09.357Z,18.15
2019-04-20T08:32:16.117Z,18.23
2019-04-20T08:33:13.307Z,18.37
2019-04-20T08:34:18.561Z,18.32
2019-04-20T08:35:22.934Z,18.44
2019-04-20T08:36:16.836Z,18.52
2019-04-20T08:37:11.093Z,18.75
2019-04-20T08:38:47.320Z,18.85
2019-04-20T08:40:15.052Z,19.13
2019-04-20T08:41:14.252Z,18.80
2019-04-20T08:42:16.198Z,18.84
2019-04-20T08:43:30.254Z,19.04
2019-04-20T08:44:35.334Z,18.90
2019-04-20T08:45:16.598Z,18.78
2019-04-20T08:46:15.065Z,19.08
2019-04-20T08:47:21.584Z,18.92
2019-04-20T08:48:18.031Z,19.11
2019-04-20T08:49:22.490Z,19.26
2019-04-20T08:50:20.964Z,19.32
2019-04-20T08:51:16.532Z,19.10
2019-04-20T08:52:41.272Z,19.21
2019-04-20T08:53:20.512Z,19.36
2019-04-20T08:54:12.399Z,19.36
2019-04-20T08:55:10.269Z,19.41
2019-04-20T08:56:09.970Z,19.37
2019-04-20T08:56:58.457Z,19.56
2019-04-20T08:57:54.462Z,19.66
2019-04-20T08:58:53.407Z,20.03
2019-04-20T08:59:54.379Z,20.24
2019-04-20T09:00:58.777Z,20.41
2019-04-20T09:01:58.122Z,20.57
2019-04-20T09:03:00.898Z,20.51
2019-04-20T09:04:04.640Z,20.05
2019-04-20T09:05:01.055Z,20.08
2019-04-20T09:06:04.626Z,20.08
2019-04-20T09:07:07.696Z,20.02
2019-04-20T09:08:06.942Z,19.98
2019-04-20T09:09:11.681Z,19.54
2019-04-20T09:10:16.398Z,19.66
2019-04-20T09:11:12.754Z,19.73
2019-04-20T09:12:09.061Z,19.87
2019-04-20T09:13:05.740Z,19.54
2019-04-20T09:13:58.445Z,19.61
2019-04-20T09:14:55.184Z,19.71
2019-04-20T09:15:53.535Z,19.96
2019-04-20T09:16:59.721Z,19.83
2019-04-20T09:18:00.671Z,19.86
2019-04-20T09:19:00.006Z,19.98
2019-04-20T09:19:58.612Z,20.10
2019-04-20T09:21:01.173Z,20.16
2019-04-20T09:22:03.206Z,20.14
2019-04-20T09:23:13.475Z,20.33
2019-04-20T09:24:19.762Z,20.50
2019-04-20T09:25:40.022Z,20.74
2019-04-20T09:26:29.703Z,20.94
2019-04-20T09:27:10.303Z,21.13
2019-04-20T09:28:07.493Z,20.79
2019-04-20T09:29:05.843Z,20.55
2019-04-20T09:30:16.105Z,20.61
2019-04-20T09:31:13.253Z,20.48
2019-04-20T09:32:14.176Z,20.47
2019-04-20T09:33:16.772Z,20.57
2019-04-20T09:34:13.269Z,20.62
2019-04-20T09:35:13.563Z,20.84
2019-04-20T09:36:10.336Z,21.06
2019-04-20T09:37:14.161Z,20.79
2019-04-20T09:38:12.267Z,20.95
2019-04-20T09:39:07.806Z,20.97
2019-04-20T09:40:15.794Z,21.16
2019-04-20T09:41:09.220Z,21.12
2019-04-20T09:42:00.833Z,21.25
2019-04-20T09:42:53.906Z,21.46
2019-04-20T09:43:54.110Z,21.64
2019-04-20T09:44:56.194Z,21.84
2019-04-20T09:46:00.030Z,21.75
2019-04-20T09:46:56.760Z,21.68
2019-04-20T09:47:56.450Z,21.54
2019-04-20T09:48:57.895Z,21.77
2019-04-20T09:50:03.774Z,21.38
2019-04-20T09:51:16.847Z,21.24
2019-04-20T09:52:07.855Z,21.04
2019-04-20T09:53:11.558Z,21.21
2019-04-20T09:54:04.383Z,21.24
2019-04-20T09:55:06.805Z,21.38
2019-04-20T09:56:14.450Z,21.44
2019-04-20T09:57:13.268Z,21.40
2019-04-20T09:58:06.287Z,21.43
2019-04-20T09:59:12.267Z,21.58
2019-04-20T10:00:11.805Z,21.83
2019-04-20T10:01:08.366Z,22.02
2019-04-20T10:02:02.192Z,22.20
2019-04-20T10:02:54.690Z,22.18
2019-04-20T10:03:52.815Z,22.12
2019-04-20T10:04:53.487Z,22.28
2019-04-20T10:05:53.788Z,22.27
2019-04-20T10:06:52.666Z,22.40
2019-04-20T10:07:56.007Z,22.43
2019-04-20T10:08:56.795Z,22.52
2019-04-20T10:09:53.919Z,22.72
2019-04-20T10:10:54.215Z,22.58
2019-04-20T10:11:53.224Z,22.55
2019-04-20T10:12:52.568Z,22.60
2019-04-20T10:13:52.565Z,22.51
2019-04-20T10:14:53.238Z,22.65
2019-04-20T10:15:53.416Z,22.57
2019-04-20T10:16:53.714Z,22.30
2019-04-20T10:17:52.515Z,22.07
2019-04-20T10:18:54.989Z,22.17
2019-04-20T10:19:53.676Z,22.39
2019-04-20T10:20:53.785Z,22.47
2019-04-20T10:21:52.872Z,22.65
2019-04-20T10:22:52.473Z,22.83
2019-04-20T10:23:52.554Z,22.80
2019-04-20T10:24:53.807Z,22.65
2019-04-20T10:25:52.447Z,22.49
2019-04-20T10:26:52.552Z,22.30
2019-04-20T10:27:53.531Z,22.46
2019-04-20T10:28:52.395Z,22.49
2019-04-20T10:29:53.511Z,22.51
2019-04-20T10:30:52.663Z,22.73
2019-04-20T10:31:57.167Z,22.54
2019-04-20T10:32:54.074Z,22.40
2019-04-20T10:33:53.460Z,22.49
2019-04-20T10:34:52.758Z,22.61
2019-04-20T10:35:52.314Z,22.85
2019-04-20T10:36:53.407Z,23.27
2019-04-20T10:37:53.510Z,23.35
2019-04-20T10:38:52.681Z,23.17
2019-04-20T10:39:52.428Z,23.32
2019-04-20T10:41:03.500Z,23.02
2019-04-20T10:41:57.661Z,23.12
2019-04-20T10:42:53.257Z,23.17
2019-04-20T10:43:53.139Z,23.40
2019-04-20T10:44:55.324Z,23.55
2019-04-20T10:45:52.982Z,23.80
2019-04-20T10:46:53.359Z,23.95
2019-04-20T10:47:52.821Z,23.69
2019-04-20T10:48:54.468Z,23.42
2019-04-20T10:49:53.275Z,23.50
2019-04-20T10:50:52.811Z,23.70
2019-04-20T10:51:52.138Z,23.98
2019-04-20T10:52:52.125Z,24.24
2019-04-20T10:53:52.139Z,24.24
2019-04-20T10:54:52.349Z,24.10
2019-04-20T10:55:53.216Z,23.75
2019-04-20T10:56:52.084Z,23.80
2019-04-20T10:57:53.328Z,23.66
2019-04-20T10:58:52.060Z,23.68
2019-04-20T10:59:52.091Z,23.73
2019-04-20T11:00:53.449Z,23.61
2019-04-20T11:01:52.051Z,23.36
2019-04-20T11:02:52.482Z,23.13
2019-04-20T11:03:52.306Z,23.33
2019-04-20T11:04:52.609Z,23.50
2019-04-20T11:05:52.976Z,23.57
2019-04-20T11:06:52.453Z,23.72
2019-04-20T11:07:52.627Z,24.03
2019-04-20T11:08:52.873Z,24.22
2019-04-20T11:10:04.398Z,24.24
2019-04-20T11:11:05.113Z,24.30
2019-04-20T11:11:52.942Z,23.97
2019-04-20T11:12:52.533Z,23.80
2019-04-20T11:13:53.164Z,24.00
2019-04-20T11:14:52.354Z,24.00
2019-04-20T11:15:52.659Z,23.85
2019-04-20T11:16:51.859Z,23.58
2019-04-20T11:17:53.210Z,23.66
2019-04-20T11:18:51.860Z,23.76
2019-04-20T11:19:51.852Z,23.98
2019-04-20T11:20:53.188Z,23.60
2019-04-20T11:21:52.357Z,23.76
2019-04-20T11:22:52.675Z,23.78
2019-04-20T11:23:52.121Z,23.50
2019-04-20T11:24:52.369Z,23.47
2019-04-20T11:25:52.475Z,23.48
2019-04-20T11:26:52.103Z,23.47
2019-04-20T11:27:52.269Z,23.55
2019-04-20T11:28:52.481Z,23.65
2019-04-20T11:29:51.962Z,23.70
2019-04-20T11:30:52.174Z,24.00
2019-04-20T11:31:55.668Z,24.31
2019-04-20T11:32:51.977Z,24.22
2019-04-20T11:33:52.270Z,24.21
2019-04-20T11:34:51.661Z,24.24
2019-04-20T11:35:51.652Z,24.45
2019-04-20T11:36:52.934Z,24.64
2019-04-20T11:37:51.657Z,24.62
2019-04-20T11:38:51.616Z,24.43
2019-04-20T11:39:52.686Z,24.57
2019-04-20T11:41:04.094Z,24.37
2019-04-20T11:41:53.868Z,24.40
2019-04-20T11:42:51.574Z,24.46
2019-04-20T11:43:51.596Z,24.40
2019-04-20T11:44:52.827Z,24.49
2019-04-20T11:45:51.547Z,24.65
2019-04-20T11:46:52.541Z,24.61
2019-04-20T11:47:51.660Z,24.57
2019-04-20T11:48:51.882Z,24.76
2019-04-20T11:49:51.497Z,24.67
2019-04-20T11:50:51.655Z,24.77
2019-04-20T11:51:51.825Z,24.68
2019-04-20T11:52:51.596Z,24.53
2019-04-20T11:53:52.249Z,24.78
2019-04-20T11:54:52.583Z,24.83
2019-04-20T11:55:52.103Z,24.62
2019-04-20T11:56:51.419Z,24.73
2019-04-20T11:57:51.407Z,24.96
2019-04-20T11:58:51.422Z,25.24
2019-04-20T11:59:51.387Z,25.30
2019-04-20T12:01:00.734Z,25.57
2019-04-20T12:02:00.115Z,25.46
2019-04-20T12:02:54.283Z,25.52
2019-04-20T12:04:00.373Z,25.45
2019-04-20T12:05:08.859Z,25.35
2019-04-20T12:05:56.938Z,25.03
2019-04-20T12:06:52.875Z,24.76
2019-04-20T12:07:51.331Z,24.80
2019-04-20T12:08:52.522Z,24.52
2019-04-20T12:09:51.502Z,24.53
2019-04-20T12:10:55.784Z,24.77
2019-04-20T12:12:06.270Z,24.85
2019-04-20T12:12:55.422Z,24.93
2019-04-20T12:13:52.248Z,24.69
2019-04-20T12:14:52.500Z,24.80
2019-04-20T12:15:51.849Z,24.77
2019-04-20T12:16:51.198Z,24.76
2019-04-20T12:17:51.512Z,24.93
2019-04-20T12:18:52.410Z,25.15
2019-04-20T12:19:52.979Z,25.14
2019-04-20T12:20:52.532Z,25.10
2019-04-20T12:21:51.694Z,25.15
2019-04-20T12:22:52.497Z,25.20
2019-04-20T12:23:51.943Z,25.39
2019-04-20T12:24:52.152Z,25.25
2019-04-20T12:25:52.357Z,25.28
2019-04-20T12:26:51.138Z,25.39
2019-04-20T12:27:55.171Z,25.51
2019-04-20T12:28:52.070Z,25.64
2019-04-20T12:29:52.030Z,25.61
2019-04-20T12:30:51.508Z,25.70
2019-04-20T12:31:55.395Z,25.72
2019-04-20T12:32:56.492Z,25.42
2019-04-20T12:33:52.596Z,25.13
2019-04-20T12:34:51.009Z,25.17
2019-04-20T12:35:52.172Z,25.02
2019-04-20T12:36:51.229Z,24.93
2019-04-20T12:37:51.362Z,24.95
2019-04-20T12:38:51.075Z,25.06
2019-04-20T12:39:51.167Z,24.93
2019-04-20T12:40:52.360Z,24.99
2019-04-20T12:41:56.753Z,25.03
2019-04-20T12:42:53.064Z,25.08
2019-04-20T12:43:51.938Z,25.05
2019-04-20T12:44:50.918Z,24.69
2019-04-20T12:45:51.732Z,24.64
2019-04-20T12:46:52.004Z,24.47
2019-04-20T12:47:51.543Z,24.61
2019-04-20T12:48:51.531Z,24.65
2019-04-20T12:49:51.653Z,24.65
2019-04-20T12:50:50.828Z,24.65
2019-04-20T12:51:56.216Z,24.69
2019-04-20T12:52:52.569Z,24.73
2019-04-20T12:53:50.875Z,24.67
2019-04-20T12:54:50.782Z,24.68
2019-04-20T12:55:50.848Z,24.55
2019-04-20T12:56:50.810Z,24.46
2019-04-20T12:57:50.751Z,24.43
2019-04-20T12:58:51.650Z,24.37
2019-04-20T12:59:52.121Z,24.52
2019-04-20T13:00:52.146Z,24.68
2019-04-20T13:01:51.388Z,24.69
2019-04-20T13:02:51.538Z,24.57
2019-04-20T13:03:50.712Z,24.55
2019-04-20T13:04:51.193Z,24.40
2019-04-20T13:05:51.903Z,24.32
2019-04-20T13:06:53.756Z,24.27
2019-04-20T13:07:55.702Z,23.97
2019-04-20T13:08:55.236Z,24.15
2019-04-20T13:09:52.687Z,24.20
2019-04-20T13:10:50.762Z,24.12
2019-04-20T13:11:57.076Z,24.30
2019-04-20T13:12:52.303Z,24.43
2019-04-20T13:13:50.596Z,24.40
2019-04-20T13:14:50.732Z,24.47
2019-04-20T13:15:50.569Z,24.34
2019-04-20T13:16:51.810Z,24.27
2019-04-20T13:17:52.434Z,23.85
2019-04-20T13:18:50.959Z,23.70
2019-04-20T13:19:51.272Z,23.60
2019-04-20T13:20:53.545Z,23.51
2019-04-20T13:21:52.767Z,23.31
2019-04-20T13:22:50.909Z,23.32